Alegria A — MGMZ7 — position and weather

sailwx.info

Track history (hours):
 
Tides and Currents Weather Stations Pressure Air Temp Water Temp Dewpoint Dewpoint Depression Visibility Wind Speed Wind Dir Waves Ship Positions

Alegria A

Last reported at 2016-Sep-11 17:33 UTC. Time now 2016-Sep-26 15:41 UTC.
Position N 37°55' E 023°41'.
Warning: this ship's position is 14 days out of date.

Length 31 m; draft 2.3 m.

Type: Pleasure craft. MMSI: 232129000.

Date/timePositionNaut miles runAvg speedWind from/ knotsBaromVisibWave heightAir tempDewpointWater temp
2016-Sep-11 17:33N 37°55' E 023°41'2625.6
2016-Sep-11 16:33N 37°30' E 023°34'16 2.6
2016-Sep-11 10:31N 37°18' E 023°21'6 0.9
2016-Sep-11 03:33N 37°21' E 023°28'0 0.0
2016-Sep-11 02:33N 37°21' E 023°28'0 0.0
2016-Sep-11 01:33N 37°21' E 023°28'0 0.0
2016-Sep-11 00:33N 37°21' E 023°28'0 0.0
2016-Sep-10 23:33N 37°21' E 023°28'0 0.0
2016-Sep-10 22:33N 37°21' E 023°28'0 0.0
2016-Sep-10 21:33N 37°21' E 023°28'0 0.0
2016-Sep-10 20:33N 37°21' E 023°28'0 0.0
2016-Sep-10 19:21N 37°21' E 023°28'0 0.0
2016-Sep-10 18:33N 37°21' E 023°28'0 0.0
2016-Sep-10 17:32N 37°21' E 023°28'0 0.0
2016-Sep-10 16:33N 37°21' E 023°28'0 0.0
2016-Sep-10 15:32N 37°21' E 023°28'5 1.0
2016-Sep-10 10:23N 37°18' E 023°22'1012.0
2016-Sep-10 09:33N 37°25' E 023°32'2323.2
2016-Sep-10 08:33N 37°48' E 023°38'9 8.6
2016-Sep-10 07:33N 37°56' E 023°41'0 0.0
2016-Sep-10 06:31N 37°56' E 023°41'0 0.0
2016-Sep-09 10:17N 37°56' E 023°41'  
Track history (hours):
 
Tides and Currents Weather Stations Pressure Air Temp Water Temp Dewpoint Dewpoint Depression Visibility Wind Speed Wind Dir Waves Ship Positions

Alegria A

Last reported at 2016-Sep-11 17:33 UTC. Time now 2016-Sep-26 15:41 UTC.
Position N 37°55' E 023°41'.
Warning: this ship's position is 14 days out of date.

Length 31 m; draft 2.3 m.

Type: Pleasure craft. MMSI: 232129000.

Date/timePositionNaut miles runAvg speedWind from/ knotsBaromVisibWave heightAir tempDewpointWater temp
2016-Sep-11 17:33N 37°55' E 023°41'2625.6
2016-Sep-11 16:33N 37°30' E 023°34'16 2.6
2016-Sep-11 10:31N 37°18' E 023°21'6 0.9
2016-Sep-11 03:33N 37°21' E 023°28'0 0.0
2016-Sep-11 02:33N 37°21' E 023°28'0 0.0
2016-Sep-11 01:33N 37°21' E 023°28'0 0.0
2016-Sep-11 00:33N 37°21' E 023°28'0 0.0
2016-Sep-10 23:33N 37°21' E 023°28'0 0.0
2016-Sep-10 22:33N 37°21' E 023°28'0 0.0
2016-Sep-10 21:33N 37°21' E 023°28'0 0.0
2016-Sep-10 20:33N 37°21' E 023°28'0 0.0
2016-Sep-10 19:21N 37°21' E 023°28'0 0.0
2016-Sep-10 18:33N 37°21' E 023°28'0 0.0
2016-Sep-10 17:32N 37°21' E 023°28'0 0.0
2016-Sep-10 16:33N 37°21' E 023°28'0 0.0
2016-Sep-10 15:32N 37°21' E 023°28'5 1.0
2016-Sep-10 10:23N 37°18' E 023°22'1012.0
2016-Sep-10 09:33N 37°25' E 023°32'2323.2
2016-Sep-10 08:33N 37°48' E 023°38'9 8.6
2016-Sep-10 07:33N 37°56' E 023°41'0 0.0
2016-Sep-10 06:31N 37°56' E 023°41'0 0.0
2016-Sep-09 10:17N 37°56' E 023°41'  

Dump ship's entire track history